sensor_id;sensor_type;location;lat;lon;timestamp;P1;durP1;ratioP1;P2;durP2;ratioP2
11572;SDS011;5842;52.426;4.886;2022-12-07T00:01:23;7.40;;;2.20;;
11572;SDS011;5842;52.426;4.886;2022-12-07T00:03:53;7.73;;;2.00;;
11572;SDS011;5842;52.426;4.886;2022-12-07T00:06:22;5.10;;;1.83;;
11572;SDS011;5842;52.426;4.886;2022-12-07T00:08:50;6.77;;;1.83;;
11572;SDS011;5842;52.426;4.886;2022-12-07T00:11:18;8.00;;;2.03;;
11572;SDS011;5842;52.426;4.886;2022-12-07T00:13:45;5.87;;;2.10;;
11572;SDS011;5842;52.426;4.886;2022-12-07T00:16:13;5.83;;;1.97;;
11572;SDS011;5842;52.426;4.886;2022-12-07T00:18:42;4.40;;;1.90;;
11572;SDS011;5842;52.426;4.886;2022-12-07T00:21:11;8.60;;;2.20;;
11572;SDS011;5842;52.426;4.886;2022-12-07T00:23:39;6.80;;;1.70;;
11572;SDS011;5842;52.426;4.886;2022-12-07T00:26:08;4.63;;;1.80;;
11572;SDS011;5842;52.426;4.886;2022-12-07T00:28:36;6.27;;;1.50;;
11572;SDS011;5842;52.426;4.886;2022-12-07T00:31:04;2.97;;;1.30;;
11572;SDS011;5842;52.426;4.886;2022-12-07T00:33:32;5.40;;;1.33;;
11572;SDS011;5842;52.426;4.886;2022-12-07T00:35:59;6.37;;;1.10;;
11572;SDS011;5842;52.426;4.886;2022-12-07T00:38:29;6.30;;;1.23;;
11572;SDS011;5842;52.426;4.886;2022-12-07T00:40:57;6.00;;;1.50;;
11572;SDS011;5842;52.426;4.886;2022-12-07T00:43:25;4.37;;;1.30;;
11572;SDS011;5842;52.426;4.886;2022-12-07T00:45:52;6.33;;;1.37;;
11572;SDS011;5842;52.426;4.886;2022-12-07T00:48:20;5.20;;;1.70;;
11572;SDS011;5842;52.426;4.886;2022-12-07T00:50:48;8.03;;;1.63;;
11572;SDS011;5842;52.426;4.886;2022-12-07T00:53:15;5.30;;;1.50;;
11572;SDS011;5842;52.426;4.886;2022-12-07T00:55:45;6.67;;;1.60;;
11572;SDS011;5842;52.426;4.886;2022-12-07T00:58:12;2.20;;;1.23;;
11572;SDS011;5842;52.426;4.886;2022-12-07T01:00:43;8.57;;;1.67;;
11572;SDS011;5842;52.426;4.886;2022-12-07T01:03:11;6.40;;;1.50;;
11572;SDS011;5842;52.426;4.886;2022-12-07T01:05:39;5.00;;;1.30;;
11572;SDS011;5842;52.426;4.886;2022-12-07T01:08:16;8.37;;;1.50;;
11572;SDS011;5842;52.426;4.886;2022-12-07T01:10:45;5.83;;;1.33;;
11572;SDS011;5842;52.426;4.886;2022-12-07T01:13:13;8.83;;;1.67;;
11572;SDS011;5842;52.426;4.886;2022-12-07T01:15:41;6.30;;;1.13;;
11572;SDS011;5842;52.426;4.886;2022-12-07T01:18:09;4.50;;;1.20;;
11572;SDS011;5842;52.426;4.886;2022-12-07T01:20:37;6.73;;;1.23;;
11572;SDS011;5842;52.426;4.886;2022-12-07T01:23:05;7.70;;;1.30;;
11572;SDS011;5842;52.426;4.886;2022-12-07T01:25:32;7.43;;;1.30;;
11572;SDS011;5842;52.426;4.886;2022-12-07T01:28:02;4.13;;;0.90;;
11572;SDS011;5842;52.426;4.886;2022-12-07T01:30:29;5.27;;;1.37;;
11572;SDS011;5842;52.426;4.886;2022-12-07T01:32:57;5.17;;;0.90;;
11572;SDS011;5842;52.426;4.886;2022-12-07T01:35:24;5.33;;;0.90;;
11572;SDS011;5842;52.426;4.886;2022-12-07T01:37:53;5.27;;;0.90;;
11572;SDS011;5842;52.426;4.886;2022-12-07T01:40:21;2.87;;;0.80;;
11572;SDS011;5842;52.426;4.886;2022-12-07T01:42:49;3.77;;;1.10;;
11572;SDS011;5842;52.426;4.886;2022-12-07T01:48:14;3.33;;;0.80;;
11572;SDS011;5842;52.426;4.886;2022-12-07T01:50:42;3.80;;;0.90;;
11572;SDS011;5842;52.426;4.886;2022-12-07T01:53:11;2.30;;;0.70;;
11572;SDS011;5842;52.426;4.886;2022-12-07T01:55:41;2.67;;;0.80;;
11572;SDS011;5842;52.426;4.886;2022-12-07T01:58:11;2.57;;;1.00;;
11572;SDS011;5842;52.426;4.886;2022-12-07T02:00:39;5.50;;;1.20;;
11572;SDS011;5842;52.426;4.886;2022-12-07T02:03:11;3.53;;;0.80;;
11572;SDS011;5842;52.426;4.886;2022-12-07T02:05:42;2.73;;;1.10;;
11572;SDS011;5842;52.426;4.886;2022-12-07T02:08:11;3.57;;;1.00;;
11572;SDS011;5842;52.426;4.886;2022-12-07T02:10:41;4.67;;;1.43;;
11572;SDS011;5842;52.426;4.886;2022-12-07T02:13:11;4.50;;;1.50;;
11572;SDS011;5842;52.426;4.886;2022-12-07T02:15:49;3.47;;;1.10;;
11572;SDS011;5842;52.426;4.886;2022-12-07T02:18:20;8.70;;;1.10;;
11572;SDS011;5842;52.426;4.886;2022-12-07T02:20:54;6.20;;;1.30;;
11572;SDS011;5842;52.426;4.886;2022-12-07T02:23:38;6.17;;;1.50;;
11572;SDS011;5842;52.426;4.886;2022-12-07T02:26:16;3.13;;;1.03;;
11572;SDS011;5842;52.426;4.886;2022-12-07T02:31:33;10.77;;;1.43;;
11572;SDS011;5842;52.426;4.886;2022-12-07T02:34:03;5.43;;;1.50;;
11572;SDS011;5842;52.426;4.886;2022-12-07T02:36:33;3.47;;;1.43;;
11572;SDS011;5842;52.426;4.886;2022-12-07T02:39:05;7.67;;;1.40;;
11572;SDS011;5842;52.426;4.886;2022-12-07T02:41:36;3.67;;;1.30;;
11572;SDS011;5842;52.426;4.886;2022-12-07T02:44:06;4.17;;;1.20;;
11572;SDS011;5842;52.426;4.886;2022-12-07T02:46:37;5.00;;;1.73;;
11572;SDS011;5842;52.426;4.886;2022-12-07T02:49:05;5.13;;;1.60;;
11572;SDS011;5842;52.426;4.886;2022-12-07T02:51:34;7.33;;;1.83;;
11572;SDS011;5842;52.426;4.886;2022-12-07T02:54:09;7.03;;;1.80;;
11572;SDS011;5842;52.426;4.886;2022-12-07T02:56:39;7.37;;;1.50;;
11572;SDS011;5842;52.426;4.886;2022-12-07T02:59:14;8.03;;;1.80;;
11572;SDS011;5842;52.426;4.886;2022-12-07T03:01:50;3.20;;;1.37;;
11572;SDS011;5842;52.426;4.886;2022-12-07T03:04:26;4.93;;;1.47;;
11572;SDS011;5842;52.426;4.886;2022-12-07T03:06:59;6.77;;;1.53;;
11572;SDS011;5842;52.426;4.886;2022-12-07T03:09:33;8.57;;;1.80;;
11572;SDS011;5842;52.426;4.886;2022-12-07T03:12:05;7.57;;;1.90;;
11572;SDS011;5842;52.426;4.886;2022-12-07T03:14:37;4.93;;;1.43;;
11572;SDS011;5842;52.426;4.886;2022-12-07T03:17:12;10.47;;;1.93;;
11572;SDS011;5842;52.426;4.886;2022-12-07T03:19:47;5.00;;;1.80;;
11572;SDS011;5842;52.426;4.886;2022-12-07T03:22:16;7.43;;;1.43;;
11572;SDS011;5842;52.426;4.886;2022-12-07T03:24:52;4.60;;;1.50;;
11572;SDS011;5842;52.426;4.886;2022-12-07T03:27:22;3.70;;;1.40;;
11572;SDS011;5842;52.426;4.886;2022-12-07T03:29:52;5.67;;;1.73;;
11572;SDS011;5842;52.426;4.886;2022-12-07T03:32:31;4.23;;;1.23;;
11572;SDS011;5842;52.426;4.886;2022-12-07T03:35:01;3.53;;;1.30;;
11572;SDS011;5842;52.426;4.886;2022-12-07T03:37:34;6.80;;;1.50;;
11572;SDS011;5842;52.426;4.886;2022-12-07T03:40:10;3.93;;;1.37;;
11572;SDS011;5842;52.426;4.886;2022-12-07T03:45:40;8.37;;;1.60;;
11572;SDS011;5842;52.426;4.886;2022-12-07T03:55:04;6.07;;;1.20;;
11572;SDS011;5842;52.426;4.886;2022-12-07T03:57:41;5.83;;;1.10;;
11572;SDS011;5842;52.426;4.886;2022-12-07T04:00:26;6.13;;;1.30;;
11572;SDS011;5842;52.426;4.886;2022-12-07T04:03:14;4.27;;;1.10;;
11572;SDS011;5842;52.426;4.886;2022-12-07T04:08:45;5.33;;;1.07;;
11572;SDS011;5842;52.426;4.886;2022-12-07T04:11:14;6.57;;;1.10;;
11572;SDS011;5842;52.426;4.886;2022-12-07T04:13:42;10.87;;;1.40;;
11572;SDS011;5842;52.426;4.886;2022-12-07T04:16:27;5.00;;;1.30;;
11572;SDS011;5842;52.426;4.886;2022-12-07T04:18:57;6.20;;;1.03;;
11572;SDS011;5842;52.426;4.886;2022-12-07T04:21:24;6.77;;;1.40;;
11572;SDS011;5842;52.426;4.886;2022-12-07T04:23:53;3.23;;;1.27;;
11572;SDS011;5842;52.426;4.886;2022-12-07T04:26:23;5.53;;;1.20;;
11572;SDS011;5842;52.426;4.886;2022-12-07T04:28:51;4.20;;;1.20;;
11572;SDS011;5842;52.426;4.886;2022-12-07T04:31:18;6.87;;;1.70;;
11572;SDS011;5842;52.426;4.886;2022-12-07T04:33:46;4.70;;;1.63;;
11572;SDS011;5842;52.426;4.886;2022-12-07T04:36:13;10.23;;;1.97;;
11572;SDS011;5842;52.426;4.886;2022-12-07T04:38:41;7.33;;;1.90;;
11572;SDS011;5842;52.426;4.886;2022-12-07T04:41:09;9.00;;;2.03;;
11572;SDS011;5842;52.426;4.886;2022-12-07T04:43:38;8.17;;;1.60;;
11572;SDS011;5842;52.426;4.886;2022-12-07T04:46:06;4.13;;;1.67;;
11572;SDS011;5842;52.426;4.886;2022-12-07T04:48:34;11.67;;;1.80;;
11572;SDS011;5842;52.426;4.886;2022-12-07T04:51:02;11.97;;;2.00;;
11572;SDS011;5842;52.426;4.886;2022-12-07T04:53:29;4.63;;;1.30;;
11572;SDS011;5842;52.426;4.886;2022-12-07T04:58:46;8.83;;;1.67;;
11572;SDS011;5842;52.426;4.886;2022-12-07T05:01:16;7.13;;;1.40;;
11572;SDS011;5842;52.426;4.886;2022-12-07T05:03:46;8.47;;;1.40;;
11572;SDS011;5842;52.426;4.886;2022-12-07T05:06:19;6.73;;;1.17;;
11572;SDS011;5842;52.426;4.886;2022-12-07T05:08:47;5.03;;;1.20;;
11572;SDS011;5842;52.426;4.886;2022-12-07T05:11:17;6.27;;;1.47;;
11572;SDS011;5842;52.426;4.886;2022-12-07T05:14:03;7.97;;;1.60;;
11572;SDS011;5842;52.426;4.886;2022-12-07T05:16:47;6.63;;;1.40;;
11572;SDS011;5842;52.426;4.886;2022-12-07T05:22:48;8.27;;;1.30;;
11572;SDS011;5842;52.426;4.886;2022-12-07T05:26:39;6.80;;;1.47;;
11572;SDS011;5842;52.426;4.886;2022-12-07T05:34:07;6.30;;;1.17;;
11572;SDS011;5842;52.426;4.886;2022-12-07T05:36:38;5.00;;;1.17;;
11572;SDS011;5842;52.426;4.886;2022-12-07T05:39:11;3.67;;;1.00;;
11572;SDS011;5842;52.426;4.886;2022-12-07T05:41:45;6.47;;;1.20;;
11572;SDS011;5842;52.426;4.886;2022-12-07T05:44:30;8.50;;;1.20;;
11572;SDS011;5842;52.426;4.886;2022-12-07T05:47:03;5.60;;;1.30;;
11572;SDS011;5842;52.426;4.886;2022-12-07T05:49:31;5.50;;;1.23;;
11572;SDS011;5842;52.426;4.886;2022-12-07T05:51:59;3.67;;;1.07;;
11572;SDS011;5842;52.426;4.886;2022-12-07T05:54:26;4.87;;;1.30;;
11572;SDS011;5842;52.426;4.886;2022-12-07T05:56:55;4.33;;;0.90;;
11572;SDS011;5842;52.426;4.886;2022-12-07T05:59:27;6.70;;;1.30;;
11572;SDS011;5842;52.426;4.886;2022-12-07T06:02:27;8.30;;;1.10;;
11572;SDS011;5842;52.426;4.886;2022-12-07T06:04:50;6.97;;;1.60;;
11572;SDS011;5842;52.426;4.886;2022-12-07T06:07:23;3.60;;;1.30;;
11572;SDS011;5842;52.426;4.886;2022-12-07T06:10:04;7.67;;;1.50;;
11572;SDS011;5842;52.426;4.886;2022-12-07T06:12:35;7.30;;;1.47;;
11572;SDS011;5842;52.426;4.886;2022-12-07T06:15:09;1.87;;;0.90;;
11572;SDS011;5842;52.426;4.886;2022-12-07T06:17:52;5.47;;;1.20;;
11572;SDS011;5842;52.426;4.886;2022-12-07T06:20:24;4.87;;;1.10;;
11572;SDS011;5842;52.426;4.886;2022-12-07T06:23:02;4.97;;;1.10;;
11572;SDS011;5842;52.426;4.886;2022-12-07T06:25:44;9.67;;;1.50;;
11572;SDS011;5842;52.426;4.886;2022-12-07T06:30:06;2.40;;;0.70;;
11572;SDS011;5842;52.426;4.886;2022-12-07T07:03:14;4.23;;;1.60;;
11572;SDS011;5842;52.426;4.886;2022-12-07T07:10:38;3.67;;;1.70;;
11572;SDS011;5842;52.426;4.886;2022-12-07T08:07:46;5.13;;;1.47;;
11572;SDS011;5842;52.426;4.886;2022-12-07T08:10:23;6.37;;;1.80;;
11572;SDS011;5842;52.426;4.886;2022-12-07T08:13:02;4.47;;;1.50;;
11572;SDS011;5842;52.426;4.886;2022-12-07T08:28:42;4.70;;;1.67;;
11572;SDS011;5842;52.426;4.886;2022-12-07T08:31:11;5.10;;;1.50;;
11572;SDS011;5842;52.426;4.886;2022-12-07T08:33:39;5.00;;;1.50;;
11572;SDS011;5842;52.426;4.886;2022-12-07T08:36:07;8.63;;;2.27;;
11572;SDS011;5842;52.426;4.886;2022-12-07T08:38:38;7.80;;;2.07;;
11572;SDS011;5842;52.426;4.886;2022-12-07T08:41:07;7.00;;;2.20;;
11572;SDS011;5842;52.426;4.886;2022-12-07T08:43:34;8.77;;;2.03;;
11572;SDS011;5842;52.426;4.886;2022-12-07T08:46:06;5.87;;;1.93;;
11572;SDS011;5842;52.426;4.886;2022-12-07T08:48:33;6.67;;;1.90;;
11572;SDS011;5842;52.426;4.886;2022-12-07T08:51:02;8.07;;;2.07;;
11572;SDS011;5842;52.426;4.886;2022-12-07T08:53:30;6.50;;;1.90;;
11572;SDS011;5842;52.426;4.886;2022-12-07T08:55:58;7.63;;;2.53;;
11572;SDS011;5842;52.426;4.886;2022-12-07T08:58:25;8.40;;;2.57;;
11572;SDS011;5842;52.426;4.886;2022-12-07T09:00:53;8.33;;;2.40;;
11572;SDS011;5842;52.426;4.886;2022-12-07T09:03:22;8.67;;;2.23;;
11572;SDS011;5842;52.426;4.886;2022-12-07T09:05:50;7.43;;;1.93;;
11572;SDS011;5842;52.426;4.886;2022-12-07T09:08:19;4.67;;;1.80;;
11572;SDS011;5842;52.426;4.886;2022-12-07T09:10:46;8.37;;;1.70;;
11572;SDS011;5842;52.426;4.886;2022-12-07T09:13:14;3.53;;;1.60;;
11572;SDS011;5842;52.426;4.886;2022-12-07T09:15:41;3.17;;;1.47;;
11572;SDS011;5842;52.426;4.886;2022-12-07T09:18:09;6.57;;;1.60;;
11572;SDS011;5842;52.426;4.886;2022-12-07T09:20:38;4.17;;;1.33;;
11572;SDS011;5842;52.426;4.886;2022-12-07T09:23:05;4.83;;;1.20;;
11572;SDS011;5842;52.426;4.886;2022-12-07T09:25:33;2.87;;;1.30;;
11572;SDS011;5842;52.426;4.886;2022-12-07T09:28:00;2.97;;;1.67;;
11572;SDS011;5842;52.426;4.886;2022-12-07T09:30:28;4.50;;;2.60;;
11572;SDS011;5842;52.426;4.886;2022-12-07T09:32:55;5.20;;;3.17;;
11572;SDS011;5842;52.426;4.886;2022-12-07T09:35:24;4.47;;;2.40;;
11572;SDS011;5842;52.426;4.886;2022-12-07T09:37:53;5.03;;;2.00;;
11572;SDS011;5842;52.426;4.886;2022-12-07T09:40:21;4.53;;;1.90;;
11572;SDS011;5842;52.426;4.886;2022-12-07T09:42:51;5.60;;;1.60;;
11572;SDS011;5842;52.426;4.886;2022-12-07T09:45:19;4.57;;;1.67;;
11572;SDS011;5842;52.426;4.886;2022-12-07T09:47:48;4.67;;;1.47;;
11572;SDS011;5842;52.426;4.886;2022-12-07T09:50:16;4.60;;;1.80;;
11572;SDS011;5842;52.426;4.886;2022-12-07T09:52:44;5.23;;;1.70;;
11572;SDS011;5842;52.426;4.886;2022-12-07T09:55:16;8.40;;;2.10;;
11572;SDS011;5842;52.426;4.886;2022-12-07T09:57:43;4.23;;;1.53;;
11572;SDS011;5842;52.426;4.886;2022-12-07T10:00:14;5.77;;;1.53;;
11572;SDS011;5842;52.426;4.886;2022-12-07T10:02:42;8.33;;;1.93;;
11572;SDS011;5842;52.426;4.886;2022-12-07T10:05:12;7.57;;;2.13;;
11572;SDS011;5842;52.426;4.886;2022-12-07T10:07:40;6.50;;;1.90;;
11572;SDS011;5842;52.426;4.886;2022-12-07T10:10:12;6.07;;;2.10;;
11572;SDS011;5842;52.426;4.886;2022-12-07T10:12:56;7.47;;;2.33;;
11572;SDS011;5842;52.426;4.886;2022-12-07T10:15:36;5.17;;;2.30;;
11572;SDS011;5842;52.426;4.886;2022-12-07T10:18:15;8.40;;;2.60;;
11572;SDS011;5842;52.426;4.886;2022-12-07T10:20:44;8.27;;;2.20;;
11572;SDS011;5842;52.426;4.886;2022-12-07T10:23:14;5.20;;;2.43;;
11572;SDS011;5842;52.426;4.886;2022-12-07T10:25:41;7.67;;;2.20;;
11572;SDS011;5842;52.426;4.886;2022-12-07T10:28:15;12.90;;;3.17;;
11572;SDS011;5842;52.426;4.886;2022-12-07T10:30:48;8.33;;;2.60;;
11572;SDS011;5842;52.426;4.886;2022-12-07T10:33:27;7.83;;;2.50;;
11572;SDS011;5842;52.426;4.886;2022-12-07T10:35:54;7.53;;;2.40;;
11572;SDS011;5842;52.426;4.886;2022-12-07T10:38:22;8.83;;;2.10;;
11572;SDS011;5842;52.426;4.886;2022-12-07T10:41:02;8.73;;;1.90;;
11572;SDS011;5842;52.426;4.886;2022-12-07T10:43:31;8.27;;;2.47;;
11572;SDS011;5842;52.426;4.886;2022-12-07T10:46:05;7.70;;;1.90;;
11572;SDS011;5842;52.426;4.886;2022-12-07T10:48:37;6.77;;;2.30;;
11572;SDS011;5842;52.426;4.886;2022-12-07T10:51:07;6.43;;;2.13;;
11572;SDS011;5842;52.426;4.886;2022-12-07T10:53:41;9.87;;;2.17;;
11572;SDS011;5842;52.426;4.886;2022-12-07T10:56:17;4.03;;;2.00;;
11572;SDS011;5842;52.426;4.886;2022-12-07T10:58:52;4.10;;;1.90;;
11572;SDS011;5842;52.426;4.886;2022-12-07T11:01:23;8.30;;;2.00;;
11572;SDS011;5842;52.426;4.886;2022-12-07T11:04:00;6.50;;;1.97;;
11572;SDS011;5842;52.426;4.886;2022-12-07T11:06:31;7.13;;;2.23;;
11572;SDS011;5842;52.426;4.886;2022-12-07T11:09:03;6.47;;;1.87;;
11572;SDS011;5842;52.426;4.886;2022-12-07T11:11:33;8.07;;;2.00;;
11572;SDS011;5842;52.426;4.886;2022-12-07T11:14:05;7.57;;;1.63;;
11572;SDS011;5842;52.426;4.886;2022-12-07T11:16:39;9.10;;;2.27;;
11572;SDS011;5842;52.426;4.886;2022-12-07T11:19:16;8.40;;;1.63;;
11572;SDS011;5842;52.426;4.886;2022-12-07T11:21:48;5.17;;;1.53;;
11572;SDS011;5842;52.426;4.886;2022-12-07T11:24:19;4.10;;;1.40;;
11572;SDS011;5842;52.426;4.886;2022-12-07T11:26:55;3.17;;;1.30;;
11572;SDS011;5842;52.426;4.886;2022-12-07T11:29:37;11.13;;;1.77;;
11572;SDS011;5842;52.426;4.886;2022-12-07T11:32:09;4.53;;;1.70;;
11572;SDS011;5842;52.426;4.886;2022-12-07T11:34:43;6.43;;;1.40;;
11572;SDS011;5842;52.426;4.886;2022-12-07T11:37:13;8.37;;;1.50;;
11572;SDS011;5842;52.426;4.886;2022-12-07T11:39:44;6.67;;;1.60;;
11572;SDS011;5842;52.426;4.886;2022-12-07T11:42:14;5.60;;;1.20;;
11572;SDS011;5842;52.426;4.886;2022-12-07T11:44:47;4.33;;;1.30;;
11572;SDS011;5842;52.426;4.886;2022-12-07T11:47:17;4.53;;;1.40;;
11572;SDS011;5842;52.426;4.886;2022-12-07T11:49:49;7.13;;;1.37;;
11572;SDS011;5842;52.426;4.886;2022-12-07T11:52:20;3.73;;;1.37;;
11572;SDS011;5842;52.426;4.886;2022-12-07T11:54:51;3.43;;;1.13;;
11572;SDS011;5842;52.426;4.886;2022-12-07T11:57:20;5.93;;;1.40;;
11572;SDS011;5842;52.426;4.886;2022-12-07T11:59:53;4.63;;;1.20;;
11572;SDS011;5842;52.426;4.886;2022-12-07T12:02:26;1.80;;;1.17;;
11572;SDS011;5842;52.426;4.886;2022-12-07T12:04:55;4.70;;;1.43;;
11572;SDS011;5842;52.426;4.886;2022-12-07T12:07:26;4.70;;;1.57;;
11572;SDS011;5842;52.426;4.886;2022-12-07T12:09:55;5.47;;;1.50;;
11572;SDS011;5842;52.426;4.886;2022-12-07T12:12:43;5.13;;;1.60;;
11572;SDS011;5842;52.426;4.886;2022-12-07T12:15:27;9.80;;;2.30;;
11572;SDS011;5842;52.426;4.886;2022-12-07T12:20:44;4.63;;;1.30;;
11572;SDS011;5842;52.426;4.886;2022-12-07T12:23:13;3.27;;;1.17;;
11572;SDS011;5842;52.426;4.886;2022-12-07T12:25:44;4.30;;;1.10;;
11572;SDS011;5842;52.426;4.886;2022-12-07T12:28:20;3.80;;;1.27;;
11572;SDS011;5842;52.426;4.886;2022-12-07T12:33:45;3.43;;;1.30;;
11572;SDS011;5842;52.426;4.886;2022-12-07T12:36:21;5.17;;;1.57;;
11572;SDS011;5842;52.426;4.886;2022-12-07T12:38:50;2.73;;;1.00;;
11572;SDS011;5842;52.426;4.886;2022-12-07T12:44:10;2.60;;;1.00;;
11572;SDS011;5842;52.426;4.886;2022-12-07T12:46:57;5.47;;;1.33;;
11572;SDS011;5842;52.426;4.886;2022-12-07T12:55:42;2.70;;;1.17;;
11572;SDS011;5842;52.426;4.886;2022-12-07T12:58:31;5.40;;;1.30;;
11572;SDS011;5842;52.426;4.886;2022-12-07T13:03:45;2.17;;;0.83;;
11572;SDS011;5842;52.426;4.886;2022-12-07T13:06:19;2.53;;;1.00;;
11572;SDS011;5842;52.426;4.886;2022-12-07T13:08:47;5.00;;;1.20;;
11572;SDS011;5842;52.426;4.886;2022-12-07T13:11:20;3.97;;;1.80;;
11572;SDS011;5842;52.426;4.886;2022-12-07T13:13:52;3.57;;;1.20;;
11572;SDS011;5842;52.426;4.886;2022-12-07T13:16:39;5.20;;;1.23;;
11572;SDS011;5842;52.426;4.886;2022-12-07T13:21:53;4.83;;;1.50;;
11572;SDS011;5842;52.426;4.886;2022-12-07T13:24:20;3.77;;;1.20;;
11572;SDS011;5842;52.426;4.886;2022-12-07T13:26:51;2.33;;;0.93;;
11572;SDS011;5842;52.426;4.886;2022-12-07T13:29:25;8.23;;;1.40;;
11572;SDS011;5842;52.426;4.886;2022-12-07T13:31:53;4.37;;;1.30;;
11572;SDS011;5842;52.426;4.886;2022-12-07T13:34:29;2.17;;;0.93;;
11572;SDS011;5842;52.426;4.886;2022-12-07T13:36:57;2.30;;;1.20;;
11572;SDS011;5842;52.426;4.886;2022-12-07T13:39:25;4.90;;;1.23;;
11572;SDS011;5842;52.426;4.886;2022-12-07T13:41:58;3.73;;;1.20;;
11572;SDS011;5842;52.426;4.886;2022-12-07T13:44:27;3.03;;;1.00;;
11572;SDS011;5842;52.426;4.886;2022-12-07T13:47:00;4.20;;;1.37;;
11572;SDS011;5842;52.426;4.886;2022-12-07T13:49:29;3.23;;;1.20;;
11572;SDS011;5842;52.426;4.886;2022-12-07T13:52:08;2.40;;;1.00;;
11572;SDS011;5842;52.426;4.886;2022-12-07T13:54:43;10.77;;;3.00;;
11572;SDS011;5842;52.426;4.886;2022-12-07T13:57:12;5.37;;;1.60;;
11572;SDS011;5842;52.426;4.886;2022-12-07T13:59:40;5.17;;;2.00;;
11572;SDS011;5842;52.426;4.886;2022-12-07T14:02:16;3.50;;;1.07;;
11572;SDS011;5842;52.426;4.886;2022-12-07T14:04:45;3.23;;;1.20;;
11572;SDS011;5842;52.426;4.886;2022-12-07T14:07:22;3.97;;;1.40;;
11572;SDS011;5842;52.426;4.886;2022-12-07T14:09:54;6.60;;;1.30;;
11572;SDS011;5842;52.426;4.886;2022-12-07T14:12:23;3.10;;;1.20;;
11572;SDS011;5842;52.426;4.886;2022-12-07T14:14:51;1.93;;;1.47;;
11572;SDS011;5842;52.426;4.886;2022-12-07T14:17:20;5.23;;;1.30;;
11572;SDS011;5842;52.426;4.886;2022-12-07T14:19:49;4.60;;;1.23;;
11572;SDS011;5842;52.426;4.886;2022-12-07T14:22:19;4.40;;;1.63;;
11572;SDS011;5842;52.426;4.886;2022-12-07T14:24:47;4.73;;;1.37;;
11572;SDS011;5842;52.426;4.886;2022-12-07T14:27:17;3.80;;;1.00;;
11572;SDS011;5842;52.426;4.886;2022-12-07T14:29:46;5.97;;;1.50;;
11572;SDS011;5842;52.426;4.886;2022-12-07T14:32:17;3.87;;;1.10;;
11572;SDS011;5842;52.426;4.886;2022-12-07T14:34:57;6.93;;;1.10;;
11572;SDS011;5842;52.426;4.886;2022-12-07T14:37:26;4.73;;;1.20;;
11572;SDS011;5842;52.426;4.886;2022-12-07T14:39:53;5.63;;;1.30;;
11572;SDS011;5842;52.426;4.886;2022-12-07T14:42:21;4.97;;;1.30;;
11572;SDS011;5842;52.426;4.886;2022-12-07T14:44:52;4.43;;;1.27;;
11572;SDS011;5842;52.426;4.886;2022-12-07T14:47:19;2.03;;;1.00;;
11572;SDS011;5842;52.426;4.886;2022-12-07T14:49:47;4.53;;;1.20;;
11572;SDS011;5842;52.426;4.886;2022-12-07T14:52:15;3.37;;;1.30;;
11572;SDS011;5842;52.426;4.886;2022-12-07T14:54:44;4.17;;;1.10;;
11572;SDS011;5842;52.426;4.886;2022-12-07T14:57:12;2.70;;;1.00;;
11572;SDS011;5842;52.426;4.886;2022-12-07T14:59:39;2.77;;;1.23;;
11572;SDS011;5842;52.426;4.886;2022-12-07T15:02:10;5.97;;;1.40;;
11572;SDS011;5842;52.426;4.886;2022-12-07T15:04:38;2.83;;;1.53;;
11572;SDS011;5842;52.426;4.886;2022-12-07T15:07:08;4.17;;;1.33;;
11572;SDS011;5842;52.426;4.886;2022-12-07T15:09:37;2.87;;;1.00;;
11572;SDS011;5842;52.426;4.886;2022-12-07T15:12:04;4.03;;;1.20;;
11572;SDS011;5842;52.426;4.886;2022-12-07T15:14:33;3.70;;;1.27;;
11572;SDS011;5842;52.426;4.886;2022-12-07T15:17:00;4.17;;;1.40;;
11572;SDS011;5842;52.426;4.886;2022-12-07T15:19:29;3.63;;;1.30;;
11572;SDS011;5842;52.426;4.886;2022-12-07T15:21:57;4.77;;;1.43;;
11572;SDS011;5842;52.426;4.886;2022-12-07T15:24:25;3.30;;;1.23;;
11572;SDS011;5842;52.426;4.886;2022-12-07T15:26:52;3.20;;;1.40;;
11572;SDS011;5842;52.426;4.886;2022-12-07T15:29:20;5.33;;;1.60;;
11572;SDS011;5842;52.426;4.886;2022-12-07T15:31:48;4.67;;;1.43;;
11572;SDS011;5842;52.426;4.886;2022-12-07T15:34:15;3.80;;;1.50;;
11572;SDS011;5842;52.426;4.886;2022-12-07T15:36:45;4.27;;;1.70;;
11572;SDS011;5842;52.426;4.886;2022-12-07T15:39:13;3.17;;;1.33;;
11572;SDS011;5842;52.426;4.886;2022-12-07T15:41:40;3.53;;;1.60;;
11572;SDS011;5842;52.426;4.886;2022-12-07T15:44:11;4.83;;;2.10;;
11572;SDS011;5842;52.426;4.886;2022-12-07T15:46:56;3.57;;;1.90;;
11572;SDS011;5842;52.426;4.886;2022-12-07T15:49:23;4.63;;;2.00;;
11572;SDS011;5842;52.426;4.886;2022-12-07T15:51:52;5.63;;;1.93;;
11572;SDS011;5842;52.426;4.886;2022-12-07T15:54:20;5.30;;;1.90;;
11572;SDS011;5842;52.426;4.886;2022-12-07T15:56:49;4.13;;;1.97;;
11572;SDS011;5842;52.426;4.886;2022-12-07T15:59:17;4.30;;;1.60;;
11572;SDS011;5842;52.426;4.886;2022-12-07T16:01:45;3.77;;;2.10;;
11572;SDS011;5842;52.426;4.886;2022-12-07T16:04:12;4.90;;;2.10;;
11572;SDS011;5842;52.426;4.886;2022-12-07T16:06:40;5.60;;;1.87;;
11572;SDS011;5842;52.426;4.886;2022-12-07T16:09:08;6.47;;;2.10;;
11572;SDS011;5842;52.426;4.886;2022-12-07T16:11:40;5.97;;;2.00;;
11572;SDS011;5842;52.426;4.886;2022-12-07T16:14:24;6.13;;;2.30;;
11572;SDS011;5842;52.426;4.886;2022-12-07T16:17:05;5.80;;;1.93;;
11572;SDS011;5842;52.426;4.886;2022-12-07T16:19:33;4.03;;;2.17;;
11572;SDS011;5842;52.426;4.886;2022-12-07T16:22:01;4.07;;;1.90;;
11572;SDS011;5842;52.426;4.886;2022-12-07T16:24:30;5.17;;;2.03;;
11572;SDS011;5842;52.426;4.886;2022-12-07T16:26:59;4.70;;;2.00;;
11572;SDS011;5842;52.426;4.886;2022-12-07T16:29:28;4.40;;;2.47;;
11572;SDS011;5842;52.426;4.886;2022-12-07T16:31:55;12.60;;;5.03;;
11572;SDS011;5842;52.426;4.886;2022-12-07T16:34:23;11.37;;;4.60;;
11572;SDS011;5842;52.426;4.886;2022-12-07T16:36:50;7.40;;;4.03;;
11572;SDS011;5842;52.426;4.886;2022-12-07T16:39:18;14.13;;;5.87;;
11572;SDS011;5842;52.426;4.886;2022-12-07T16:41:46;13.17;;;5.20;;
11572;SDS011;5842;52.426;4.886;2022-12-07T16:44:14;8.97;;;3.53;;
11572;SDS011;5842;52.426;4.886;2022-12-07T16:46:42;12.03;;;2.70;;
11572;SDS011;5842;52.426;4.886;2022-12-07T16:49:11;9.87;;;3.00;;
11572;SDS011;5842;52.426;4.886;2022-12-07T16:51:39;6.07;;;1.50;;
11572;SDS011;5842;52.426;4.886;2022-12-07T16:54:08;4.27;;;1.43;;
11572;SDS011;5842;52.426;4.886;2022-12-07T16:56:36;4.53;;;1.50;;
11572;SDS011;5842;52.426;4.886;2022-12-07T16:59:08;3.47;;;1.30;;
11572;SDS011;5842;52.426;4.886;2022-12-07T17:01:36;4.27;;;1.40;;
11572;SDS011;5842;52.426;4.886;2022-12-07T17:04:04;2.83;;;1.10;;
11572;SDS011;5842;52.426;4.886;2022-12-07T17:06:32;4.67;;;1.27;;
11572;SDS011;5842;52.426;4.886;2022-12-07T17:09:00;2.30;;;1.00;;
11572;SDS011;5842;52.426;4.886;2022-12-07T17:11:29;2.70;;;1.40;;
11572;SDS011;5842;52.426;4.886;2022-12-07T17:13:57;2.87;;;1.27;;
11572;SDS011;5842;52.426;4.886;2022-12-07T17:16:44;2.90;;;1.60;;
11572;SDS011;5842;52.426;4.886;2022-12-07T17:19:12;4.60;;;1.70;;
11572;SDS011;5842;52.426;4.886;2022-12-07T17:21:40;5.63;;;1.70;;
11572;SDS011;5842;52.426;4.886;2022-12-07T17:24:09;3.00;;;1.60;;
11572;SDS011;5842;52.426;4.886;2022-12-07T17:26:38;2.53;;;1.40;;
11572;SDS011;5842;52.426;4.886;2022-12-07T17:29:07;3.87;;;1.30;;
11572;SDS011;5842;52.426;4.886;2022-12-07T17:31:35;4.27;;;1.90;;
11572;SDS011;5842;52.426;4.886;2022-12-07T17:34:07;5.63;;;1.70;;
11572;SDS011;5842;52.426;4.886;2022-12-07T17:36:35;4.80;;;1.87;;
11572;SDS011;5842;52.426;4.886;2022-12-07T17:39:06;8.80;;;2.20;;
11572;SDS011;5842;52.426;4.886;2022-12-07T17:41:34;8.60;;;2.30;;
11572;SDS011;5842;52.426;4.886;2022-12-07T17:44:19;5.87;;;2.00;;
11572;SDS011;5842;52.426;4.886;2022-12-07T17:46:48;8.70;;;1.77;;
11572;SDS011;5842;52.426;4.886;2022-12-07T17:49:20;4.00;;;1.10;;
11572;SDS011;5842;52.426;4.886;2022-12-07T17:51:48;4.27;;;1.20;;
11572;SDS011;5842;52.426;4.886;2022-12-07T17:54:33;5.37;;;1.10;;
11572;SDS011;5842;52.426;4.886;2022-12-07T17:57:01;4.17;;;1.10;;
11572;SDS011;5842;52.426;4.886;2022-12-07T17:59:28;5.60;;;1.30;;